Map

Track Data

SID SEASON NUMBER BASIN SUBBASIN NAME ISO_TIME NATURE LAT LON WMO_WIND WMO_PRES WMO_AGENCY TRACK_TYPE DIST2LAND LANDFALL IFLAG USA_AGENCY USA_ATCF_ID USA_LAT USA_LON USA_RECORD USA_STATUS USA_WIND USA_PRES USA_SSHS USA_R34_NE USA_R34_SE USA_R34_SW USA_R34_NW USA_R50_NE USA_R50_SE USA_R50_SW USA_R50_NW USA_R64_NE USA_R64_SE USA_R64_SW USA_R64_NW USA_POCI USA_ROCI USA_RMW USA_EYE TOKYO_LAT TOKYO_LON TOKYO_GRADE TOKYO_WIND TOKYO_PRES TOKYO_R50_DIR TOKYO_R50_LONG TOKYO_R50_SHORT TOKYO_R30_DIR TOKYO_R30_LONG TOKYO_R30_SHORT TOKYO_LAND CMA_LAT CMA_LON CMA_CAT CMA_WIND CMA_PRES HKO_LAT HKO_LON HKO_CAT HKO_WIND HKO_PRES NEWDELHI_LAT NEWDELHI_LON NEWDELHI_GRADE NEWDELHI_WIND NEWDELHI_PRES NEWDELHI_CI NEWDELHI_DP NEWDELHI_POCI REUNION_LAT REUNION_LON REUNION_TYPE REUNION_WIND REUNION_PRES REUNION_TNUM REUNION_CI REUNION_RMW REUNION_R34_NE REUNION_R34_SE REUNION_R34_SW REUNION_R34_NW REUNION_R50_NE REUNION_R50_SE REUNION_R50_SW REUNION_R50_NW REUNION_R64_NE REUNION_R64_SE REUNION_R64_SW REUNION_R64_NW BOM_LAT BOM_LON BOM_TYPE BOM_WIND BOM_PRES BOM_TNUM BOM_CI BOM_RMW BOM_R34_NE BOM_R34_SE BOM_R34_SW BOM_R34_NW BOM_R50_NE BOM_R50_SE BOM_R50_SW BOM_R50_NW BOM_R64_NE BOM_R64_SE BOM_R64_SW BOM_R64_NW BOM_ROCI BOM_POCI BOM_EYE BOM_POS_METHOD BOM_PRES_METHOD NADI_LAT NADI_LON NADI_CAT NADI_WIND NADI_PRES WELLINGTON_LAT WELLINGTON_LON WELLINGTON_WIND WELLINGTON_PRES DS824_LAT DS824_LON DS824_STAGE DS824_WIND DS824_PRES TD9636_LAT TD9636_LON TD9636_STAGE TD9636_WIND TD9636_PRES TD9635_LAT TD9635_LON TD9635_WIND TD9635_PRES TD9635_ROCI NEUMANN_LAT NEUMANN_LON NEUMANN_CLASS NEUMANN_WIND NEUMANN_PRES MLC_LAT MLC_LON MLC_CLASS MLC_WIND MLC_PRES USA_GUST BOM_GUST BOM_GUST_PER REUNION_GUST REUNION_GUST_PER USA_SEAHGT USA_SEARAD_NE USA_SEARAD_SE USA_SEARAD_SW USA_SEARAD_NW STORM_SPEED STORM_DIR
1967216N18132 1967 64 WP MM NOT_NAMED 1967-08-04 06:00:00 TS 17.5000 132.000 main 907 870 __O___________ -1 17.5000 132.000 0 1001 11 289
1967216N18132 1967 64 WP MM NOT_NAMED 1967-08-04 09:00:00 TS 17.6824 131.447 main 861 817 __P___________ -1 17.6824 131.447 0 1001 12 289
1967216N18132 1967 64 WP MM NOT_NAMED 1967-08-04 12:00:00 TS 17.9000 130.800 main 817 769 __O___________ -1 17.9000 130.800 0 1001 14 290
1967216N18132 1967 64 WP MM NOT_NAMED 1967-08-04 15:00:00 TS 18.1654 130.058 main 776 749 __P___________ -1 18.1654 130.058 0 1001 12 294
1967216N18132 1967 64 WP MM NOT_NAMED 1967-08-04 18:00:00 TS 18.4000 129.600 main 749 749 __O___________ -1 18.4000 129.600 0 1001 5 337
1967216N18132 1967 64 WP MM NOT_NAMED 1967-08-04 21:00:00 TS 18.5827 129.867 main 788 788 __P___________ -1 18.5827 129.867 0 1001 7 73
1967216N18132 1967 64 WP MM NOT_NAMED 1967-08-05 00:00:00 TS 18.6000 130.300 main 820 806 __O___________ -1 18.6000 130.300 1 29 1001 5 116
1967216N18132 1967 64 WP MM NOT_NAMED 1967-08-05 03:00:00 TS 18.3749 130.310 main 806 771 __P___________ -1 18.3749 130.310 1 29 1001 6 189
1967216N18132 1967 64 WP MM NOT_NAMED 1967-08-05 06:00:00 TS 18.0000 130.200 main 771 737 __O___________ -1 18.0000 130.200 1 29 1001 8 191
1967216N18132 1967 64 WP MM NOT_NAMED 1967-08-05 09:00:00 TS 17.5925 130.142 main 737 713 __P___________ -1 17.5925 130.142 1 29 1001 8 187
1967216N18132 1967 64 WP MM NOT_NAMED 1967-08-05 12:00:00 TS 17.2000 130.100 main 713 702 __O___________ -1 17.2000 130.100 1 29 1001 6 184
1967216N18132 1967 64 WP MM NOT_NAMED 1967-08-05 15:00:00 TS 16.9500 130.093 main 702 687 __P___________ -1 16.9500 130.093 1 29 1001 5 178
1967216N18132 1967 64 WP MM NOT_NAMED 1967-08-05 18:00:00 TS 16.7000 130.100 main 687 668 __O___________ -1 16.7000 130.100 1 29 1001 6 182
1967216N18132 1967 64 WP MM NOT_NAMED 1967-08-05 21:00:00 TS 16.3225 130.092 main 668 646 __P___________ -1 16.3225 130.092 1 29 1001 8 179
1967216N18132 1967 64 WP MM NOT_NAMED 1967-08-06 00:00:00 TS 15.9000 130.100 main 646 625 __O___________ -1 15.9000 130.100 1 29 1001 8 175
1967216N18132 1967 64 WP MM NOT_NAMED 1967-08-06 03:00:00 TS 15.5075 130.158 main 627 602 __P___________ -1 15.5075 130.158 1 29 1000 8 173
1967216N18132 1967 64 WP MM NOT_NAMED 1967-08-06 06:00:00 TS 15.1000 130.200 main 602 575 __O___________ -1 15.1000 130.200 1 29 1000 9 176
1967216N18132 1967 64 WP MM NOT_NAMED 1967-08-06 09:00:00 TS 14.5749 130.210 main 575 546 __P___________ -1 14.5749 130.210 1 29 1000 9 186
1967216N18132 1967 64 WP MM NOT_NAMED 1967-08-06 12:00:00 TS 14.2000 130.100 main 546 516 __O___________ -1 14.2000 130.100 1 29 1000 6 230
1967216N18132 1967 64 WP MM NOT_NAMED 1967-08-06 15:00:00 TS 14.2177 129.773 main 516 488 __P___________ -1 14.2177 129.773 1 29 999 7 286
1967216N18132 1967 64 WP MM NOT_NAMED 1967-08-06 18:00:00 TS 14.4000 129.400 main 488 476 __O___________ -1 14.4000 129.400 1 29 999 6 296
1967216N18132 1967 64 WP MM NOT_NAMED 1967-08-06 21:00:00 TS 14.4924 129.185 main 476 464 __P___________ -1 14.4924 129.185 1 29 999 4 297
1967216N18132 1967 64 WP MM NOT_NAMED 1967-08-07 00:00:00 TS 14.6000 129.000 main 464 453 __O___________ -1 14.6000 129.000 1 29 999 5 300
1967216N18132 1967 64 WP MM NOT_NAMED 1967-08-07 03:00:00 TS 14.7350 128.757 main 453 443 __P___________ -1 14.7350 128.757 1 29 999 6 302
1967216N18132 1967 64 WP MM NOT_NAMED 1967-08-07 06:00:00 TS 14.9000 128.500 main 443 427 __O___________ -1 14.9000 128.500 1 29 999 6 302
1967216N18132 1967 64 WP MM NOT_NAMED 1967-08-07 09:00:00 TS 15.0475 128.235 main 427 414 __P___________ -1 15.0475 128.235 1 26 999 6 310
1967216N18132 1967 64 WP MM NOT_NAMED 1967-08-07 12:00:00 TS 15.3000 128.000 main 418 412 __O___________ -1 15.3000 128.000 1 23 999 8 332
1967216N18132 1967 64 WP MM NOT_NAMED 1967-08-07 15:00:00 TS 15.7399 127.857 main 426 422 __P___________ -1 15.7399 127.857 1 23 999 10 344
1967216N18132 1967 64 WP MM NOT_NAMED 1967-08-07 18:00:00 TS 16.3000 127.700 main 444 443 __O___________ -1 16.3000 127.700 1 23 1000 13 341
1967216N18132 1967 64 WP MM NOT_NAMED 1967-08-07 21:00:00 TS 16.9225 127.423 main 464 464 __P___________ -1 16.9225 127.423 1 1000 13 334
1967216N18132 1967 64 WP MM NOT_NAMED 1967-08-08 00:00:00 TS 17.5000 127.100 main 491 467 __O___________ -1 17.5000 127.100 0 1001 12 329
1967216N18132 1967 64 WP MM NOT_NAMED 1967-08-08 03:00:00 TS 17.9174 126.800 main 467 443 __P___________ -1 17.9174 126.800 0 1001 9 321
1967216N18132 1967 64 WP MM NOT_NAMED 1967-08-08 06:00:00 TS 18.2000 126.500 main 443 411 __O___________ -1 18.2000 126.500 0 1002 7 309
1967216N18132 1967 64 WP MM NOT_NAMED 1967-08-08 09:00:00 TS 18.3776 126.200 main 411 379 __P___________ -1 18.3776 126.200 0 1002 6 298
1967216N18132 1967 64 WP MM NOT_NAMED 1967-08-08 12:00:00 TS 18.5000 125.900 main 379 __O___________ -1 18.5000 125.900 0 1003 6 293

Digital Typhoon Data and Search

About IBTrACS Database

This database is a web-friendly format of International Best Track Archive for Climate Stewardship (IBTrACS), a global best track data archive curated by NOAA dating back to 1842.

Updated: 2021-12-01